Terminal Aerodrome Forecast
Issued by NWS

Home | Current Version | Previous Version | Graphics & Text | Print | Product List | Glossary Off
Versions: 1 2 3 4 5 6 7 8 9 10 11 12 13 14

000
FTUS43 KGRB 021100
TAFMTW
TAF
KMTW 021126Z 0212/0312 28009KT P6SM SKC
     FM022200 19005KT P6SM BKN200
     FM030400 18006KT P6SM BKN100
     FM030900 16009KT P6SM -SN BKN035 OVC070
      TEMPO 0310/0312 3SM -SN OVC018=

USA.gov is the U.S. government's official web portal to all federal, state and local government web resources and services.